Festivo — EAEQ — position and weather

sailwx.info

Track history (hours):
 
Tides and Currents Weather Stations Pressure Air Temp Water Temp Dewpoint Dewpoint Depression Visibility Wind Speed Wind Dir Waves Ship Positions

Festivo

Last reported at 2014-Oct-25 05:33 UTC. Time now 2014-Oct-25 06:19 UTC.
Position N 35°58' W 005°15'.

Length 136 m; draft 4.5 m.

Type: Cargo ship. MMSI: 225410000.

Date/timePositionNaut miles runAvg speedWind from/ knotsBaromVisibWave heightAir tempDewpointWater temp
2014-Oct-25 05:33N 35°58' W 005°15'0 0.0
2014-Oct-23 09:33N 35°57' W 005°16'5 4.5
2014-Oct-23 08:31N 35°54' W 005°19'0 0.0
2014-Oct-23 07:31N 35°54' W 005°19'0 0.0
2014-Oct-23 06:31N 35°54' W 005°19'0 0.0
2014-Oct-23 05:31N 35°54' W 005°19'1 0.6
2014-Oct-23 04:33N 35°54' W 005°19'9 9.0
2014-Oct-23 03:31N 36°00' W 005°10'  
2014-Oct-18 16:17N 35°54' W 005°08'810.6
2014-Oct-18 15:33N 35°55' W 005°18'2 2.2
2014-Oct-18 14:32N 35°54' W 005°19'0 0.0
2014-Oct-18 13:32N 35°54' W 005°19'0 0.0
2014-Oct-18 12:32N 35°54' W 005°19'0 0.0
2014-Oct-18 11:32N 35°54' W 005°19'0 0.0
2014-Oct-18 10:32N 35°54' W 005°19'0 0.0
2014-Oct-18 09:32N 35°54' W 005°19'0 0.0
2014-Oct-18 08:32N 35°54' W 005°19'0 0.0
2014-Oct-18 07:32N 35°54' W 005°19'0 0.0
2014-Oct-18 06:32N 35°54' W 005°19'0 0.0
2014-Oct-18 05:33N 35°54' W 005°19'6 5.8
2014-Oct-18 04:33N 35°58' W 005°15'1 0.0
2014-Oct-16 09:33N 35°58' W 005°14'6 5.7
2014-Oct-16 08:30N 35°54' W 005°19'0 0.0
2014-Oct-16 07:30N 35°54' W 005°19'0 0.0
2014-Oct-16 06:33N 35°54' W 005°19'0 0.0
2014-Oct-16 05:33N 35°54' W 005°19'6 5.8
2014-Oct-16 04:33N 35°58' W 005°15'  
Track history (hours):
 
Tides and Currents Weather Stations Pressure Air Temp Water Temp Dewpoint Dewpoint Depression Visibility Wind Speed Wind Dir Waves Ship Positions

Festivo

Last reported at 2014-Oct-25 05:33 UTC. Time now 2014-Oct-25 06:19 UTC.
Position N 35°58' W 005°15'.

Length 136 m; draft 4.5 m.

Type: Cargo ship. MMSI: 225410000.

Date/timePositionNaut miles runAvg speedWind from/ knotsBaromVisibWave heightAir tempDewpointWater temp
2014-Oct-25 05:33N 35°58' W 005°15'0 0.0
2014-Oct-23 09:33N 35°57' W 005°16'5 4.5
2014-Oct-23 08:31N 35°54' W 005°19'0 0.0
2014-Oct-23 07:31N 35°54' W 005°19'0 0.0
2014-Oct-23 06:31N 35°54' W 005°19'0 0.0
2014-Oct-23 05:31N 35°54' W 005°19'1 0.6
2014-Oct-23 04:33N 35°54' W 005°19'9 9.0
2014-Oct-23 03:31N 36°00' W 005°10'  
2014-Oct-18 16:17N 35°54' W 005°08'810.6
2014-Oct-18 15:33N 35°55' W 005°18'2 2.2
2014-Oct-18 14:32N 35°54' W 005°19'0 0.0
2014-Oct-18 13:32N 35°54' W 005°19'0 0.0
2014-Oct-18 12:32N 35°54' W 005°19'0 0.0
2014-Oct-18 11:32N 35°54' W 005°19'0 0.0
2014-Oct-18 10:32N 35°54' W 005°19'0 0.0
2014-Oct-18 09:32N 35°54' W 005°19'0 0.0
2014-Oct-18 08:32N 35°54' W 005°19'0 0.0
2014-Oct-18 07:32N 35°54' W 005°19'0 0.0
2014-Oct-18 06:32N 35°54' W 005°19'0 0.0
2014-Oct-18 05:33N 35°54' W 005°19'6 5.8
2014-Oct-18 04:33N 35°58' W 005°15'1 0.0
2014-Oct-16 09:33N 35°58' W 005°14'6 5.7
2014-Oct-16 08:30N 35°54' W 005°19'0 0.0
2014-Oct-16 07:30N 35°54' W 005°19'0 0.0
2014-Oct-16 06:33N 35°54' W 005°19'0 0.0
2014-Oct-16 05:33N 35°54' W 005°19'6 5.8
2014-Oct-16 04:33N 35°58' W 005°15'  

Dump ship's entire track history